Impacts TAF Board
For situational awareness. Not to be used for flight planning purposes.
IDs:

KCLE - Cleveland/Hopkins In, OH, US

Issued at 1505 UTC 03 Jun 2020
Updated at 1714 UTC 03 Jun 2020
Potential Impact None Slight Moderate High
Time<<04/06Z 04/07Z 04/08Z 04/09Z 04/10Z 04/11Z 04/12Z 04/13Z 04/14Z 04/15Z 04/16Z 04/17Z 04/18Z>>
Type PRVL PRVL PRVL PRVL PRVL PRVL PRVL PRVL PRVL PRVL PRVL PRVL
VIS >6 >6 >6 >6 >6 >6 >6 >6 >6 >6 >6 >6
CIG 100 100 100 100 100 100 100 100 100 100 100 100
Cover BKN BKN BKN BKN BKN BKN BKN BKN BKN BKN BKN BKN
FltCat VFR VFR VFR VFR VFR VFR VFR VFR VFR VFR VFR VFR
WX -- -- -- -- -- -- -- -- -- -- -- --
WDir 180 180 180 180 180 180 180 180 180 180 180 180
WSpd 4 4 4 4 4 4 4 4 4 4 4 4
WGst -- -- -- -- -- -- -- -- -- -- -- --
Raw TAF
KCLE 031505Z 0315/0418 28014G24KT P6SM SCT050
  FM031900 29015G25KT P6SM BKN050
  FM032300 28004KT P6SM SCT080
  FM040300 18004KT P6SM BKN100


METAR Board
Radar Display
Forecast Discussion
For situational awareness. Not to be used for flight planning purposes.